createdAt,value
2022-10-30T00:00:48.391Z,30.40
2022-10-30T00:04:10.539Z,30.50
2022-10-30T00:07:12.472Z,30.50
2022-10-30T00:10:15.271Z,30.60
2022-10-30T00:13:18.127Z,31.10
2022-10-30T00:16:20.259Z,31.60
2022-10-30T00:19:22.216Z,31.60
2022-10-30T00:22:24.375Z,31.50
2022-10-30T00:25:26.432Z,31.30
2022-10-30T00:28:28.466Z,31.20
2022-10-30T00:31:31.328Z,30.90
2022-10-30T00:34:33.472Z,31.10
2022-10-30T00:37:35.361Z,31.40
2022-10-30T00:40:37.509Z,30.80
2022-10-30T00:43:40.636Z,30.80
2022-10-30T00:46:42.878Z,30.80
2022-10-30T00:50:12.161Z,30.50
2022-10-30T00:53:18.343Z,30.70
2022-10-30T00:56:23.306Z,30.50
2022-10-30T00:59:30.475Z,30.50
2022-10-30T01:02:33.239Z,30.50
2022-10-30T01:05:36.490Z,30.50
2022-10-30T01:08:39.059Z,30.50
2022-10-30T01:11:41.602Z,30.60
2022-10-30T01:14:50.573Z,30.40
2022-10-30T01:18:22.955Z,30.40
2022-10-30T01:21:31.206Z,30.50
2022-10-30T01:25:03.821Z,30.50
2022-10-30T01:28:31.862Z,30.50
2022-10-30T01:31:57.641Z,30.30
2022-10-30T01:35:05.435Z,30.40
2022-10-30T01:38:15.480Z,31.30
2022-10-30T01:41:17.533Z,31.20
2022-10-30T01:44:32.628Z,30.60
2022-10-30T01:47:46.509Z,30.80
2022-10-30T01:51:26.281Z,30.60
2022-10-30T01:54:39.915Z,30.70
2022-10-30T01:58:00.028Z,30.80
2022-10-30T02:01:02.654Z,30.70
2022-10-30T02:04:06.494Z,30.80
2022-10-30T02:07:09.843Z,31.10
2022-10-30T02:10:12.672Z,31.30
2022-10-30T02:13:15.412Z,31.50
2022-10-30T02:16:17.823Z,31.50
2022-10-30T02:19:19.776Z,32.40
2022-10-30T02:22:22.318Z,32.10
2022-10-30T02:25:24.310Z,31.70
2022-10-30T02:28:26.464Z,31.20
2022-10-30T02:31:28.753Z,30.80
2022-10-30T02:34:30.896Z,30.70
2022-10-30T02:37:32.870Z,31.10
2022-10-30T02:40:35.074Z,30.90
2022-10-30T02:43:37.080Z,30.70
2022-10-30T02:46:39.376Z,30.30
2022-10-30T02:49:41.399Z,30.20
2022-10-30T02:52:43.505Z,29.70
2022-10-30T02:55:45.446Z,29.70
2022-10-30T02:58:47.557Z,30.50
2022-10-30T03:01:49.520Z,31.00
2022-10-30T03:04:51.624Z,31.00
2022-10-30T03:07:54.899Z,30.60
2022-10-30T03:11:06.301Z,30.80
2022-10-30T03:14:08.243Z,30.00
2022-10-30T03:17:10.309Z,29.70
2022-10-30T03:20:12.526Z,29.30
2022-10-30T03:23:14.651Z,29.60
2022-10-30T03:26:17.495Z,29.80
2022-10-30T03:29:19.650Z,30.00
2022-10-30T03:32:21.688Z,30.60
2022-10-30T03:35:23.843Z,29.50
2022-10-30T03:38:26.099Z,29.70
2022-10-30T03:41:28.248Z,29.40
2022-10-30T03:44:30.220Z,29.40
2022-10-30T03:47:32.310Z,29.60
2022-10-30T03:50:34.283Z,29.40
2022-10-30T03:53:36.349Z,29.30
2022-10-30T03:56:38.342Z,29.60
2022-10-30T03:59:40.487Z,29.80
2022-10-30T04:02:50.308Z,30.10
2022-10-30T04:05:53.806Z,31.20
2022-10-30T04:08:55.973Z,30.60
2022-10-30T04:11:58.132Z,30.00
2022-10-30T04:15:00.023Z,31.00
2022-10-30T04:18:02.922Z,32.00
2022-10-30T04:21:05.175Z,32.00
2022-10-30T04:24:07.488Z,30.80
2022-10-30T04:27:09.444Z,30.20
2022-10-30T04:30:13.243Z,30.30
2022-10-30T04:33:15.294Z,30.40
2022-10-30T04:36:18.582Z,30.40
2022-10-30T04:39:20.480Z,30.20
2022-10-30T04:42:22.637Z,30.20
2022-10-30T04:45:24.921Z,30.80
2022-10-30T04:48:27.406Z,31.30
2022-10-30T04:51:29.328Z,31.00
2022-10-30T04:54:31.480Z,30.90
2022-10-30T04:57:34.419Z,30.90
2022-10-30T05:00:36.768Z,30.80
2022-10-30T05:03:38.798Z,30.30
2022-10-30T05:06:40.936Z,30.50
2022-10-30T05:09:42.934Z,30.80
2022-10-30T05:12:45.882Z,30.60
2022-10-30T05:15:47.859Z,30.20
2022-10-30T05:18:49.982Z,30.20
2022-10-30T05:21:52.095Z,30.10
2022-10-30T05:24:54.247Z,30.40
2022-10-30T05:28:04.179Z,31.00
2022-10-30T05:31:06.391Z,31.10
2022-10-30T05:34:08.333Z,30.40
2022-10-30T05:37:10.436Z,30.50
2022-10-30T05:40:12.493Z,30.50
2022-10-30T05:43:14.754Z,30.40
2022-10-30T05:46:16.851Z,30.50
2022-10-30T05:49:18.943Z,30.80
2022-10-30T05:52:20.987Z,31.00
2022-10-30T05:55:23.339Z,30.60
2022-10-30T05:58:25.648Z,30.50
2022-10-30T06:01:27.818Z,30.40
2022-10-30T06:04:29.924Z,30.50
2022-10-30T06:07:31.997Z,30.40
2022-10-30T06:10:34.368Z,31.00
2022-10-30T06:13:36.454Z,30.40
2022-10-30T06:16:38.649Z,30.30
2022-10-30T06:19:40.810Z,30.30
2022-10-30T06:22:42.785Z,30.40
2022-10-30T06:25:44.928Z,30.50
2022-10-30T06:28:47.098Z,30.20
2022-10-30T06:31:49.247Z,30.70
2022-10-30T06:34:51.143Z,30.60
2022-10-30T06:37:55.206Z,30.70
2022-10-30T06:40:57.173Z,30.90
2022-10-30T06:43:59.368Z,30.90
2022-10-30T06:47:01.421Z,30.80
2022-10-30T06:50:08.709Z,30.90
2022-10-30T06:53:10.692Z,30.90
2022-10-30T06:56:12.867Z,30.80
2022-10-30T06:59:14.823Z,31.40
2022-10-30T07:02:17.617Z,30.80
2022-10-30T07:05:19.638Z,30.90
2022-10-30T07:08:21.727Z,30.70
2022-10-30T07:11:23.871Z,30.70
2022-10-30T07:14:25.993Z,31.00
2022-10-30T07:17:27.978Z,31.10
2022-10-30T07:20:32.237Z,31.20
2022-10-30T07:23:34.182Z,31.10
2022-10-30T07:26:38.182Z,31.10
2022-10-30T07:29:40.168Z,31.30
2022-10-30T07:32:43.800Z,31.60
2022-10-30T07:35:45.731Z,31.70
2022-10-30T07:38:51.874Z,31.80
2022-10-30T07:41:53.799Z,31.70
2022-10-30T07:44:56.015Z,31.80
2022-10-30T07:47:58.210Z,31.70
2022-10-30T07:51:00.559Z,31.80
2022-10-30T07:54:02.777Z,32.00
2022-10-30T07:57:04.906Z,31.90
2022-10-30T08:00:09.608Z,31.80
2022-10-30T08:03:12.680Z,31.80
2022-10-30T08:06:14.579Z,31.70
2022-10-30T08:09:16.667Z,31.60
2022-10-30T08:12:18.692Z,31.30
2022-10-30T08:15:20.883Z,31.50
2022-10-30T08:18:22.952Z,31.40
2022-10-30T08:21:25.292Z,31.30
2022-10-30T08:24:27.270Z,31.20
2022-10-30T08:27:30.408Z,31.30
2022-10-30T08:30:35.009Z,31.40
2022-10-30T08:33:37.480Z,31.50
2022-10-30T08:36:41.701Z,31.70
2022-10-30T08:39:46.130Z,31.70
2022-10-30T08:42:55.740Z,31.60
2022-10-30T08:45:58.362Z,31.90
2022-10-30T08:49:00.574Z,31.80
2022-10-30T08:52:02.616Z,31.70
2022-10-30T08:55:05.138Z,31.40
2022-10-30T08:58:07.480Z,31.30
2022-10-30T09:01:09.768Z,31.30
2022-10-30T09:04:11.931Z,31.20
2022-10-30T09:07:13.846Z,31.40
2022-10-30T09:10:16.237Z,31.10
2022-10-30T09:13:18.160Z,31.00
2022-10-30T09:16:20.337Z,31.00
2022-10-30T09:19:22.294Z,31.00
2022-10-30T09:22:24.368Z,31.10
2022-10-30T09:25:26.551Z,31.10
2022-10-30T09:28:28.653Z,31.10
2022-10-30T09:31:30.562Z,31.20
2022-10-30T09:34:32.672Z,31.30
2022-10-30T09:37:38.683Z,31.30
2022-10-30T09:41:19.438Z,31.50
2022-10-30T09:45:08.042Z,31.40
2022-10-30T09:48:42.645Z,31.10
2022-10-30T09:52:17.929Z,31.30
2022-10-30T09:55:25.936Z,31.50
2022-10-30T09:58:38.666Z,31.40
2022-10-30T10:01:55.695Z,31.40
2022-10-30T10:05:30.032Z,31.10
2022-10-30T10:08:40.556Z,30.90
2022-10-30T10:11:48.606Z,30.90
2022-10-30T10:14:51.299Z,30.60
2022-10-30T10:17:53.528Z,30.60
2022-10-30T10:21:01.871Z,30.80
2022-10-30T10:24:16.792Z,30.80
2022-10-30T10:27:46.933Z,30.70
2022-10-30T10:31:44.517Z,30.80
2022-10-30T10:35:10.648Z,30.70
2022-10-30T10:38:21.234Z,30.60
2022-10-30T10:41:26.382Z,30.40
2022-10-30T10:44:34.300Z,30.50
2022-10-30T10:47:56.137Z,30.60
2022-10-30T10:51:10.633Z,30.70
2022-10-30T10:54:19.647Z,30.30
2022-10-30T10:57:35.306Z,30.40
2022-10-30T11:00:38.108Z,30.10
2022-10-30T11:03:57.582Z,30.00
2022-10-30T11:07:10.447Z,30.00
2022-10-30T11:10:14.816Z,29.80
2022-10-30T11:13:17.462Z,30.20
2022-10-30T11:16:51.288Z,30.00
2022-10-30T11:20:11.824Z,30.00
2022-10-30T11:23:40.491Z,30.00
2022-10-30T11:26:42.893Z,29.90
2022-10-30T11:29:52.632Z,29.80
2022-10-30T11:32:57.208Z,29.90
2022-10-30T11:36:14.576Z,30.00
2022-10-30T11:39:21.103Z,30.00
2022-10-30T11:42:23.083Z,30.00
2022-10-30T11:45:28.865Z,30.00
2022-10-30T11:48:33.951Z,30.00
2022-10-30T11:51:39.030Z,30.00
2022-10-30T11:54:46.119Z,30.00
2022-10-30T11:57:59.169Z,30.00
2022-10-30T12:01:03.430Z,30.00
2022-10-30T12:04:27.429Z,30.10
2022-10-30T12:07:33.679Z,30.10
2022-10-30T12:10:43.114Z,30.00
2022-10-30T12:13:45.138Z,30.30
2022-10-30T12:16:50.191Z,30.10
2022-10-30T12:19:55.290Z,30.40
2022-10-30T12:22:58.323Z,30.30
2022-10-30T12:26:08.799Z,30.40
2022-10-30T12:29:16.717Z,30.50
2022-10-30T12:32:21.705Z,30.60
2022-10-30T12:35:26.914Z,30.70
2022-10-30T12:38:44.325Z,30.40
2022-10-30T12:42:13.634Z,30.50
2022-10-30T12:45:28.076Z,30.40
2022-10-30T12:48:47.532Z,30.40
2022-10-30T12:52:07.582Z,30.30
2022-10-30T12:55:30.556Z,30.50
2022-10-30T12:59:12.387Z,30.30
2022-10-30T13:02:45.660Z,30.50
2022-10-30T13:09:17.067Z,30.70
2022-10-30T13:12:35.350Z,30.80
2022-10-30T13:15:44.896Z,31.00
2022-10-30T13:18:46.941Z,31.00
2022-10-30T13:22:00.620Z,31.10
2022-10-30T13:25:17.916Z,31.10
2022-10-30T13:28:27.972Z,31.10
2022-10-30T13:31:56.860Z,31.20
2022-10-30T13:35:17.941Z,31.30
2022-10-30T13:38:35.099Z,31.20
2022-10-30T13:42:16.797Z,31.30
2022-10-30T13:45:24.413Z,31.40
2022-10-30T13:48:48.450Z,31.30
2022-10-30T13:52:27.398Z,31.40
2022-10-30T13:55:35.177Z,31.50
2022-10-30T13:59:00.197Z,31.40
2022-10-30T14:02:14.151Z,31.40
2022-10-30T14:05:50.710Z,31.30
2022-10-30T14:09:00.894Z,31.20
2022-10-30T14:12:42.803Z,31.20
2022-10-30T14:15:46.512Z,31.50
2022-10-30T14:19:01.770Z,31.50
2022-10-30T14:22:03.921Z,31.60
2022-10-30T14:25:14.423Z,32.20
2022-10-30T14:28:22.783Z,31.80
2022-10-30T14:31:35.688Z,31.70
2022-10-30T14:34:49.937Z,32.00
2022-10-30T14:37:51.802Z,32.10
2022-10-30T14:40:53.833Z,32.30
2022-10-30T14:44:33.156Z,32.20
2022-10-30T14:47:57.174Z,32.40
2022-10-30T14:51:28.752Z,32.50
2022-10-30T14:55:02.161Z,32.40
2022-10-30T14:58:04.150Z,32.10
2022-10-30T15:01:20.098Z,32.20
2022-10-30T15:04:51.276Z,32.30
2022-10-30T15:08:34.365Z,32.50
2022-10-30T15:11:39.343Z,32.30
2022-10-30T15:14:53.860Z,32.50
2022-10-30T15:18:01.313Z,33.00
2022-10-30T15:21:18.589Z,32.30
2022-10-30T15:24:32.000Z,32.10
2022-10-30T15:27:46.163Z,33.00
2022-10-30T15:31:05.610Z,33.90
2022-10-30T15:34:22.473Z,32.60
2022-10-30T15:37:24.580Z,32.00
2022-10-30T15:40:27.741Z,32.10
2022-10-30T15:43:34.017Z,31.60
2022-10-30T15:46:36.681Z,31.80
2022-10-30T15:49:42.012Z,31.80
2022-10-30T15:52:44.286Z,32.40
2022-10-30T15:55:47.085Z,32.20
2022-10-30T15:58:51.955Z,34.00
2022-10-30T16:01:56.192Z,33.70
2022-10-30T16:04:58.342Z,32.00
2022-10-30T16:08:02.442Z,31.40
2022-10-30T16:11:05.457Z,31.10
2022-10-30T16:14:13.627Z,31.00
2022-10-30T16:17:15.963Z,31.10
2022-10-30T16:20:18.238Z,31.40
2022-10-30T16:23:21.637Z,30.90
2022-10-30T16:26:25.037Z,30.90
2022-10-30T16:29:27.826Z,30.90
2022-10-30T16:32:31.828Z,31.10
2022-10-30T16:35:34.105Z,31.00
2022-10-30T16:38:38.190Z,30.80
2022-10-30T16:41:40.588Z,31.50
2022-10-30T16:44:42.561Z,31.50
2022-10-30T16:47:47.372Z,31.10
2022-10-30T16:50:49.962Z,31.60
2022-10-30T16:53:53.117Z,31.80
2022-10-30T16:56:57.154Z,31.00
2022-10-30T17:00:01.572Z,31.00
2022-10-30T17:03:10.115Z,30.60
2022-10-30T17:06:44.679Z,30.40
2022-10-30T17:09:48.678Z,31.20
2022-10-30T17:12:50.882Z,30.60
2022-10-30T17:15:52.901Z,30.10
2022-10-30T17:18:57.474Z,30.50
2022-10-30T17:22:07.804Z,30.20
2022-10-30T17:25:30.391Z,29.90
2022-10-30T17:28:36.651Z,30.00
2022-10-30T17:31:38.707Z,30.20
2022-10-30T17:34:40.945Z,30.00
2022-10-30T17:37:43.089Z,30.00
2022-10-30T17:40:47.163Z,30.10
2022-10-30T17:43:53.306Z,30.50
2022-10-30T17:46:55.367Z,30.10
2022-10-30T17:49:57.596Z,30.30
2022-10-30T17:52:59.862Z,30.50
2022-10-30T17:56:23.557Z,30.50
2022-10-30T17:59:25.543Z,30.40
2022-10-30T18:02:27.878Z,30.10
2022-10-30T18:05:30.718Z,30.10
2022-10-30T18:08:33.871Z,30.30
2022-10-30T18:11:36.624Z,29.80
2022-10-30T18:14:38.788Z,30.00
2022-10-30T18:17:40.871Z,29.90
2022-10-30T18:20:43.063Z,29.90
2022-10-30T18:23:53.837Z,29.90
2022-10-30T18:26:56.796Z,29.60
2022-10-30T18:29:58.938Z,29.40
2022-10-30T18:33:01.685Z,29.50
2022-10-30T18:36:07.080Z,29.70
2022-10-30T18:39:13.138Z,29.80
2022-10-30T18:42:15.170Z,29.50
2022-10-30T18:45:19.310Z,29.40
2022-10-30T18:48:21.317Z,29.40
2022-10-30T18:51:26.122Z,29.40
2022-10-30T18:54:28.492Z,29.60
2022-10-30T18:57:30.670Z,29.60
2022-10-30T19:00:44.913Z,29.50
2022-10-30T19:03:53.454Z,29.30
2022-10-30T19:06:55.552Z,29.00
2022-10-30T19:09:59.594Z,29.40
2022-10-30T19:13:16.131Z,29.20
2022-10-30T19:16:20.102Z,29.00
2022-10-30T19:19:22.788Z,28.90
2022-10-30T19:22:25.644Z,28.90
2022-10-30T19:25:31.749Z,29.00
2022-10-30T19:28:34.100Z,29.10
2022-10-30T19:31:35.967Z,29.10
2022-10-30T19:34:38.575Z,29.00
2022-10-30T19:37:41.795Z,28.90
2022-10-30T19:40:44.443Z,29.00
2022-10-30T19:43:49.464Z,29.00
2022-10-30T19:46:51.785Z,28.90
2022-10-30T19:49:53.794Z,28.80
2022-10-30T19:52:58.899Z,29.10
2022-10-30T19:56:01.196Z,28.90
2022-10-30T19:59:03.810Z,29.30
2022-10-30T20:02:06.925Z,29.40
2022-10-30T20:05:15.887Z,29.40
2022-10-30T20:08:25.614Z,30.00
2022-10-30T20:11:28.524Z,29.20
2022-10-30T20:14:30.582Z,29.30
2022-10-30T20:17:33.190Z,29.60
2022-10-30T20:20:35.643Z,29.90
2022-10-30T20:23:38.495Z,30.00
2022-10-30T20:26:41.943Z,30.10
2022-10-30T20:29:44.243Z,30.00
2022-10-30T20:32:46.332Z,29.80
2022-10-30T20:35:50.121Z,29.60
2022-10-30T20:38:52.078Z,29.20
2022-10-30T20:41:54.259Z,29.20
2022-10-30T20:44:56.188Z,28.80
2022-10-30T20:47:58.698Z,28.70
2022-10-30T20:51:02.231Z,28.80
2022-10-30T20:54:04.488Z,28.90
2022-10-30T20:57:06.522Z,28.60
2022-10-30T21:00:11.634Z,28.70
2022-10-30T21:03:16.565Z,29.30
2022-10-30T21:06:19.252Z,29.30
2022-10-30T21:09:21.198Z,29.30
2022-10-30T21:12:23.572Z,29.60
2022-10-30T21:15:25.725Z,29.70
2022-10-30T21:18:27.884Z,29.90
2022-10-30T21:21:29.827Z,29.50
2022-10-30T21:24:32.036Z,29.50
2022-10-30T21:27:33.997Z,29.50
2022-10-30T21:30:36.139Z,29.60
2022-10-30T21:33:38.437Z,29.60
2022-10-30T21:36:40.648Z,29.70
2022-10-30T21:39:42.638Z,29.60
2022-10-30T21:42:48.075Z,29.50
2022-10-30T21:45:50.025Z,29.60
2022-10-30T21:48:52.469Z,29.40
2022-10-30T21:51:54.430Z,29.50
2022-10-30T21:54:56.556Z,29.50
2022-10-30T21:57:58.724Z,29.40
2022-10-30T22:01:01.120Z,29.00
2022-10-30T22:04:05.373Z,29.20
2022-10-30T22:07:07.677Z,29.00
2022-10-30T22:10:09.671Z,28.70
2022-10-30T22:16:18.578Z,28.60
2022-10-30T22:19:20.780Z,28.60
2022-10-30T22:22:22.699Z,28.70
2022-10-30T22:25:24.829Z,28.80
2022-10-30T22:28:28.542Z,28.80
2022-10-30T22:31:30.740Z,29.40
2022-10-30T22:34:32.806Z,29.70
2022-10-30T22:37:34.882Z,29.60
2022-10-30T22:40:36.819Z,29.40
2022-10-30T22:43:40.093Z,29.40
2022-10-30T22:46:42.095Z,29.20
2022-10-30T22:49:44.177Z,29.30
2022-10-30T22:52:46.221Z,29.30
2022-10-30T22:55:48.384Z,29.10
2022-10-30T22:58:51.494Z,29.30
2022-10-30T23:01:53.721Z,29.20
2022-10-30T23:04:55.653Z,29.20
2022-10-30T23:07:57.728Z,29.20
2022-10-30T23:10:59.716Z,29.10
2022-10-30T23:14:02.124Z,29.00
2022-10-30T23:17:04.078Z,29.40
2022-10-30T23:20:08.033Z,29.30
2022-10-30T23:23:10.214Z,29.30
2022-10-30T23:26:21.204Z,29.20
2022-10-30T23:29:23.136Z,29.20
2022-10-30T23:32:25.537Z,29.20
2022-10-30T23:35:27.471Z,28.70
2022-10-30T23:38:30.028Z,28.70
2022-10-30T23:41:34.509Z,28.80
2022-10-30T23:44:36.692Z,28.90
2022-10-30T23:47:42.583Z,28.90
2022-10-30T23:50:45.145Z,28.70
2022-10-30T23:53:47.639Z,28.60
2022-10-30T23:56:49.779Z,28.80
2022-10-30T23:59:51.705Z,28.90
